Espace membre
ImprimablePdf
Challenges > Delhalle - Butgenbach, 06/05/2006, BEL - Rund um den See
Liste des rapports > Delhalle - 21km - Classement scratch
Recherche: Page: [1]
24 Entrées
 
Les réclamations ne sont plus acceptées, les résultats sont considérés comme définitifs.
RangNrNomAgeIOCLigueEquipeRéelTempsTkmMoy.ScrPtsLocalité
1.2314FLECOQ Francoise45BEL1:33:261:33:314:28 13.4758806MALMEDY
2.392FBRIALMONT Irene49BELSPASPA1:37:071:37:104:38 12.9784744SPA
3.2035FSCHWAN Claudia40BELGERMANIA EICHERSCHEI1:38:471:38:554:43 12.74107708
4.2043FBRANDENBURG Irmgard40DEUTV KALTERHERBERG1:39:291:39:354:45 12.65112696MONSCHAU
5.1503FBEL Linda42BELBRABO1:46:181:46:215:04 11.85188566BORGERHOUT
6.2214FHUSTINGS Martine41BEL1:47:291:47:405:08 11.70207539WAREMME
7.2310FLEEUWEN Inge46NLD1:48:161:48:275:10 11.62217524HEERLEN
8.2047FKOESTNER Ursula41DEUFC WEIDE1:51:531:52:165:21 11.22253460
9.2225FMARCHAL Marie-Anne49BEL1:54:091:54:355:28 11.00280418IXELLES
10.1432FSALENS Lia41BEL2:00:132:00:385:45 10.44333321WOLVERTEM
11.2242FDAHMEN Alexa46BELSCBUTG2:00:462:00:545:46 10.42337313ELSENBORN
12.1427FMARION Paulette47BELARCH2:02:212:02:295:50 10.29343294CINEY
13.1700FPETERS Chantal43BEL2:02:142:02:455:51 10.26345294MALONNE
14.1199FGUILLAUME Beatrice45BELSPTWAVRE2:03:212:03:455:54 10.18352278WAVRE
15.2355FDANNEMARK Sylvia47BEL2:04:182:04:415:57 10.11362263WAIMES
16.1396FWENDRICKX Brigitte45BELMARCKLOP2:10:482:10:546:14 9.63390185WORTEL
17.300FADAM Francoise45BELHRC2:14:382:15:036:26 9.33406141VIRTON
18.1342FDEWILDE Magali42BELDACMJOGGANS2:15:082:15:226:27 9.31408136MOLENBEEK-ST-JEAN
19.2267FNEUBERG Marie-Paule45BEL2:18:032:18:376:37 9.09416106HEINSCH
20.2268FKNOBEL Karin47BEL2:20:302:21:046:44 8.9342084
21.1008FTILLY Georgette45BEL2:21:162:21:406:45 8.8942475CHIEVRES
22.1477FDECELLIER Dominique49BELACLO2:35:222:35:517:26 8.084337COUILLET
23.2244FDEELEN Reinhilde49BELAC BREAK2:38:272:38:377:34 7.944346BRASSCHAAT
DNF383FCOSTA Lucia45BELFLEUWANGENIES
DNF: abandon; DSQ: disqualifié; Vitesse en km/h